sensor_id;sensor_type;location;lat;lon;timestamp;P1;durP1;ratioP1;P2;durP2;ratioP2
22861;SDS011;11598;50.652;6.172;2023-11-22T00:02:41;64.88;;;24.75;;
22861;SDS011;11598;50.652;6.172;2023-11-22T00:12:42;62.22;;;25.17;;
22861;SDS011;11598;50.652;6.172;2023-11-22T00:22:42;62.25;;;23.77;;
22861;SDS011;11598;50.652;6.172;2023-11-22T00:32:45;52.47;;;22.73;;
22861;SDS011;11598;50.652;6.172;2023-11-22T00:42:45;59.53;;;23.60;;
22861;SDS011;11598;50.652;6.172;2023-11-22T00:52:46;62.00;;;25.77;;
22861;SDS011;11598;50.652;6.172;2023-11-22T01:02:46;55.90;;;23.38;;
22861;SDS011;11598;50.652;6.172;2023-11-22T01:12:47;60.78;;;22.67;;
22861;SDS011;11598;50.652;6.172;2023-11-22T01:22:48;68.15;;;26.05;;
22861;SDS011;11598;50.652;6.172;2023-11-22T01:32:48;64.05;;;26.67;;
22861;SDS011;11598;50.652;6.172;2023-11-22T01:42:49;63.38;;;24.63;;
22861;SDS011;11598;50.652;6.172;2023-11-22T01:52:50;54.22;;;22.25;;
22861;SDS011;11598;50.652;6.172;2023-11-22T02:02:51;64.57;;;25.07;;
22861;SDS011;11598;50.652;6.172;2023-11-22T02:12:51;70.15;;;27.70;;
22861;SDS011;11598;50.652;6.172;2023-11-22T02:22:51;142.05;;;33.22;;
22861;SDS011;11598;50.652;6.172;2023-11-22T02:32:53;99.65;;;32.53;;
22861;SDS011;11598;50.652;6.172;2023-11-22T02:42:54;95.70;;;30.77;;
22861;SDS011;11598;50.652;6.172;2023-11-22T02:52:56;80.30;;;29.33;;
22861;SDS011;11598;50.652;6.172;2023-11-22T03:02:56;78.38;;;29.83;;
22861;SDS011;11598;50.652;6.172;2023-11-22T03:12:56;88.90;;;31.08;;
22861;SDS011;11598;50.652;6.172;2023-11-22T03:22:57;68.13;;;26.30;;
22861;SDS011;11598;50.652;6.172;2023-11-22T03:32:57;85.57;;;32.00;;
22861;SDS011;11598;50.652;6.172;2023-11-22T03:42:57;72.93;;;30.95;;
22861;SDS011;11598;50.652;6.172;2023-11-22T03:52:58;60.40;;;25.50;;
22861;SDS011;11598;50.652;6.172;2023-11-22T04:02:58;58.20;;;27.05;;
22861;SDS011;11598;50.652;6.172;2023-11-22T04:13:01;37.97;;;21.85;;
22861;SDS011;11598;50.652;6.172;2023-11-22T04:23:01;39.05;;;22.02;;
22861;SDS011;11598;50.652;6.172;2023-11-22T04:33:02;38.88;;;22.30;;
22861;SDS011;11598;50.652;6.172;2023-11-22T04:43:02;43.95;;;23.25;;
22861;SDS011;11598;50.652;6.172;2023-11-22T04:53:03;39.38;;;22.58;;
22861;SDS011;11598;50.652;6.172;2023-11-22T05:03:03;27.95;;;17.25;;
22861;SDS011;11598;50.652;6.172;2023-11-22T05:13:03;31.08;;;19.25;;
22861;SDS011;11598;50.652;6.172;2023-11-22T05:23:05;30.77;;;17.15;;
22861;SDS011;11598;50.652;6.172;2023-11-22T05:33:05;28.75;;;17.77;;
22861;SDS011;11598;50.652;6.172;2023-11-22T05:43:06;25.70;;;15.35;;
22861;SDS011;11598;50.652;6.172;2023-11-22T05:53:08;20.45;;;12.82;;
22861;SDS011;11598;50.652;6.172;2023-11-22T06:03:11;25.73;;;14.45;;
22861;SDS011;11598;50.652;6.172;2023-11-22T06:13:12;23.73;;;14.43;;
22861;SDS011;11598;50.652;6.172;2023-11-22T06:23:12;32.10;;;18.65;;
22861;SDS011;11598;50.652;6.172;2023-11-22T06:33:12;33.70;;;18.60;;
22861;SDS011;11598;50.652;6.172;2023-11-22T06:43:13;30.88;;;18.40;;
22861;SDS011;11598;50.652;6.172;2023-11-22T06:53:13;33.55;;;18.63;;
22861;SDS011;11598;50.652;6.172;2023-11-22T07:03:13;23.92;;;15.00;;
22861;SDS011;11598;50.652;6.172;2023-11-22T07:13:15;23.43;;;14.60;;
22861;SDS011;11598;50.652;6.172;2023-11-22T07:23:15;29.75;;;16.38;;
22861;SDS011;11598;50.652;6.172;2023-11-22T07:33:16;31.13;;;18.60;;
22861;SDS011;11598;50.652;6.172;2023-11-22T07:43:16;26.98;;;15.75;;
22861;SDS011;11598;50.652;6.172;2023-11-22T07:53:18;28.95;;;17.55;;
22861;SDS011;11598;50.652;6.172;2023-11-22T08:03:18;26.90;;;14.93;;
22861;SDS011;11598;50.652;6.172;2023-11-22T08:13:23;26.10;;;15.35;;
22861;SDS011;11598;50.652;6.172;2023-11-22T08:23:23;29.05;;;18.42;;
22861;SDS011;11598;50.652;6.172;2023-11-22T08:33:27;26.40;;;16.52;;
22861;SDS011;11598;50.652;6.172;2023-11-22T08:43:27;32.65;;;17.75;;
22861;SDS011;11598;50.652;6.172;2023-11-22T08:53:28;26.80;;;15.88;;
22861;SDS011;11598;50.652;6.172;2023-11-22T09:03:30;18.77;;;12.32;;
22861;SDS011;11598;50.652;6.172;2023-11-22T09:13:31;30.45;;;16.02;;
22861;SDS011;11598;50.652;6.172;2023-11-22T09:23:31;29.55;;;16.13;;
22861;SDS011;11598;50.652;6.172;2023-11-22T09:33:32;34.63;;;18.67;;
22861;SDS011;11598;50.652;6.172;2023-11-22T09:43:32;23.83;;;13.80;;
22861;SDS011;11598;50.652;6.172;2023-11-22T09:53:34;18.88;;;11.35;;
22861;SDS011;11598;50.652;6.172;2023-11-22T10:03:40;15.55;;;9.13;;
22861;SDS011;11598;50.652;6.172;2023-11-22T10:13:41;13.48;;;7.80;;
22861;SDS011;11598;50.652;6.172;2023-11-22T10:23:41;16.08;;;9.32;;
22861;SDS011;11598;50.652;6.172;2023-11-22T10:33:42;8.82;;;5.60;;
22861;SDS011;11598;50.652;6.172;2023-11-22T10:43:42;10.60;;;6.13;;
22861;SDS011;11598;50.652;6.172;2023-11-22T10:53:48;10.45;;;6.15;;
22861;SDS011;11598;50.652;6.172;2023-11-22T11:03:56;10.32;;;5.43;;
22861;SDS011;11598;50.652;6.172;2023-11-22T11:14:04;23.25;;;11.63;;
22861;SDS011;11598;50.652;6.172;2023-11-22T11:24:07;10.60;;;5.80;;
22861;SDS011;11598;50.652;6.172;2023-11-22T11:34:08;13.13;;;7.40;;
22861;SDS011;11598;50.652;6.172;2023-11-22T11:44:08;14.68;;;8.70;;
22861;SDS011;11598;50.652;6.172;2023-11-22T11:54:12;12.10;;;6.70;;
22861;SDS011;11598;50.652;6.172;2023-11-22T12:04:13;11.90;;;6.30;;
22861;SDS011;11598;50.652;6.172;2023-11-22T12:14:13;9.77;;;4.95;;
22861;SDS011;11598;50.652;6.172;2023-11-22T12:24:13;11.95;;;7.00;;
22861;SDS011;11598;50.652;6.172;2023-11-22T12:34:15;11.65;;;6.75;;
22861;SDS011;11598;50.652;6.172;2023-11-22T12:44:16;8.07;;;4.63;;
22861;SDS011;11598;50.652;6.172;2023-11-22T12:54:17;8.65;;;4.60;;
22861;SDS011;11598;50.652;6.172;2023-11-22T13:04:20;8.27;;;5.05;;
22861;SDS011;11598;50.652;6.172;2023-11-22T13:14:20;9.15;;;5.07;;
22861;SDS011;11598;50.652;6.172;2023-11-22T13:24:20;14.07;;;6.53;;
22861;SDS011;11598;50.652;6.172;2023-11-22T13:34:21;11.95;;;5.35;;
22861;SDS011;11598;50.652;6.172;2023-11-22T13:44:21;10.85;;;5.57;;
22861;SDS011;11598;50.652;6.172;2023-11-22T13:54:21;9.90;;;5.18;;
22861;SDS011;11598;50.652;6.172;2023-11-22T14:04:22;9.07;;;4.70;;
22861;SDS011;11598;50.652;6.172;2023-11-22T14:14:23;9.90;;;5.38;;
22861;SDS011;11598;50.652;6.172;2023-11-22T14:24:24;7.88;;;4.28;;
22861;SDS011;11598;50.652;6.172;2023-11-22T14:34:24;12.27;;;6.88;;
22861;SDS011;11598;50.652;6.172;2023-11-22T14:44:24;13.90;;;8.02;;
22861;SDS011;11598;50.652;6.172;2023-11-22T14:54:25;15.75;;;9.57;;
22861;SDS011;11598;50.652;6.172;2023-11-22T15:04:26;15.75;;;8.65;;
22861;SDS011;11598;50.652;6.172;2023-11-22T15:14:26;16.45;;;9.32;;
22861;SDS011;11598;50.652;6.172;2023-11-22T15:24:27;12.00;;;7.85;;
22861;SDS011;11598;50.652;6.172;2023-11-22T15:34:27;19.83;;;10.55;;
22861;SDS011;11598;50.652;6.172;2023-11-22T15:44:27;18.35;;;11.00;;
22861;SDS011;11598;50.652;6.172;2023-11-22T15:54:29;20.98;;;11.18;;
22861;SDS011;11598;50.652;6.172;2023-11-22T16:04:29;20.77;;;11.57;;
22861;SDS011;11598;50.652;6.172;2023-11-22T16:14:30;19.27;;;10.10;;
22861;SDS011;11598;50.652;6.172;2023-11-22T16:24:31;18.52;;;10.70;;
22861;SDS011;11598;50.652;6.172;2023-11-22T16:34:31;18.10;;;11.27;;
22861;SDS011;11598;50.652;6.172;2023-11-22T16:44:32;20.40;;;11.23;;
22861;SDS011;11598;50.652;6.172;2023-11-22T16:54:33;19.98;;;11.57;;
22861;SDS011;11598;50.652;6.172;2023-11-22T17:04:39;16.85;;;10.23;;
22861;SDS011;11598;50.652;6.172;2023-11-22T17:14:42;20.38;;;10.73;;
22861;SDS011;11598;50.652;6.172;2023-11-22T17:24:42;20.60;;;10.70;;
22861;SDS011;11598;50.652;6.172;2023-11-22T17:34:43;18.20;;;9.90;;
22861;SDS011;11598;50.652;6.172;2023-11-22T17:44:43;19.05;;;10.80;;
22861;SDS011;11598;50.652;6.172;2023-11-22T17:54:49;21.83;;;11.25;;
22861;SDS011;11598;50.652;6.172;2023-11-22T18:04:49;23.45;;;12.70;;
22861;SDS011;11598;50.652;6.172;2023-11-22T18:14:49;20.52;;;11.98;;
22861;SDS011;11598;50.652;6.172;2023-11-22T18:24:50;20.63;;;11.75;;
22861;SDS011;11598;50.652;6.172;2023-11-22T18:34:51;21.47;;;11.13;;
22861;SDS011;11598;50.652;6.172;2023-11-22T18:44:52;15.02;;;8.45;;
22861;SDS011;11598;50.652;6.172;2023-11-22T18:54:52;20.15;;;11.00;;
22861;SDS011;11598;50.652;6.172;2023-11-22T19:04:53;23.08;;;11.20;;
22861;SDS011;11598;50.652;6.172;2023-11-22T19:14:53;19.70;;;9.82;;
22861;SDS011;11598;50.652;6.172;2023-11-22T19:24:53;17.98;;;9.32;;
22861;SDS011;11598;50.652;6.172;2023-11-22T19:34:54;14.38;;;7.38;;
22861;SDS011;11598;50.652;6.172;2023-11-22T19:44:54;15.18;;;7.80;;
22861;SDS011;11598;50.652;6.172;2023-11-22T19:54:56;10.07;;;4.87;;
22861;SDS011;11598;50.652;6.172;2023-11-22T20:04:57;14.25;;;7.00;;
22861;SDS011;11598;50.652;6.172;2023-11-22T20:14:58;11.82;;;6.43;;
22861;SDS011;11598;50.652;6.172;2023-11-22T20:24:58;10.82;;;6.47;;
22861;SDS011;11598;50.652;6.172;2023-11-22T20:34:58;12.93;;;7.05;;
22861;SDS011;11598;50.652;6.172;2023-11-22T20:44:59;17.52;;;8.75;;
22861;SDS011;11598;50.652;6.172;2023-11-22T20:54:59;16.55;;;8.73;;
22861;SDS011;11598;50.652;6.172;2023-11-22T21:05:01;17.42;;;8.77;;
22861;SDS011;11598;50.652;6.172;2023-11-22T21:15:01;15.45;;;8.13;;
22861;SDS011;11598;50.652;6.172;2023-11-22T21:25:02;14.57;;;7.65;;
22861;SDS011;11598;50.652;6.172;2023-11-22T21:35:02;13.48;;;7.80;;
22861;SDS011;11598;50.652;6.172;2023-11-22T21:45:04;12.77;;;6.50;;
22861;SDS011;11598;50.652;6.172;2023-11-22T21:55:07;14.15;;;7.20;;
22861;SDS011;11598;50.652;6.172;2023-11-22T22:05:09;12.27;;;6.63;;
22861;SDS011;11598;50.652;6.172;2023-11-22T22:15:09;14.63;;;7.55;;
22861;SDS011;11598;50.652;6.172;2023-11-22T22:25:09;13.63;;;7.13;;
22861;SDS011;11598;50.652;6.172;2023-11-22T22:35:10;13.77;;;6.72;;
22861;SDS011;11598;50.652;6.172;2023-11-22T22:45:10;14.15;;;6.82;;
22861;SDS011;11598;50.652;6.172;2023-11-22T22:55:11;17.77;;;7.15;;
22861;SDS011;11598;50.652;6.172;2023-11-22T23:05:11;17.42;;;8.10;;
22861;SDS011;11598;50.652;6.172;2023-11-22T23:15:13;13.75;;;6.97;;
22861;SDS011;11598;50.652;6.172;2023-11-22T23:25:13;15.52;;;6.97;;
22861;SDS011;11598;50.652;6.172;2023-11-22T23:35:14;16.90;;;6.23;;
22861;SDS011;11598;50.652;6.172;2023-11-22T23:45:17;10.88;;;5.97;;
22861;SDS011;11598;50.652;6.172;2023-11-22T23:55:19;13.03;;;6.10;;
